Time;durP1;ratioP1;P1;durP2;ratioP2;P2;SDS_P1;SDS_P2;PMS_P1;PMS_P2;Temp;Humidity;BMP_temperature;BMP_pressure;BME280_temperature;BME280_humidity;BME280_pressure;Samples;Min_cycle;Max_cycle;Signal;HPM_P1;HPM_P2
2023/10/27 00:02:06;;;;;;;4.85;2.10;;;;;;;;;;4875849;29;20028;-90
2023/10/27 00:04:32;;;;;;;6.70;2.05;;;;;;;;;;4875968;29;20051;-86
2023/10/27 00:06:57;;;;;;;4.47;2.63;;;;;;;;;;4876607;29;20029;-86
2023/10/27 00:09:22;;;;;;;4.90;2.15;;;;;;;;;;4876509;29;20430;-84
2023/10/27 00:11:48;;;;;;;9.13;2.00;;;;;;;;;;4876415;29;20101;-83
2023/10/27 00:14:13;;;;;;;3.97;1.90;;;;;;;;;;4876027;29;20029;-85
2023/10/27 00:16:39;;;;;;;4.90;1.95;;;;;;;;;;4859953;29;20021;-84
2023/10/27 00:19:04;;;;;;;5.38;1.70;;;;;;;;;;4859182;29;20483;-85
2023/10/27 00:21:29;;;;;;;4.20;1.75;;;;;;;;;;4875525;29;20143;-83
2023/10/27 00:23:55;;;;;;;3.13;1.65;;;;;;;;;;4873961;29;20048;-83
2023/10/27 00:26:20;;;;;;;6.43;2.10;;;;;;;;;;4876146;29;20031;-82
2023/10/27 00:28:46;;;;;;;2.85;1.45;;;;;;;;;;4875264;29;20100;-82
2023/10/27 00:31:12;;;;;;;3.08;1.35;;;;;;;;;;4876346;29;20029;-81
2023/10/27 00:33:37;;;;;;;4.13;1.30;;;;;;;;;;4875100;29;20033;-82
2023/10/27 00:36:03;;;;;;;4.82;1.50;;;;;;;;;;4875263;29;20073;-82
2023/10/27 00:38:30;;;;;;;4.95;1.40;;;;;;;;;;4875274;29;20040;-82
2023/10/27 00:40:55;;;;;;;6.00;1.40;;;;;;;;;;4867986;29;20037;-82
2023/10/27 00:43:21;;;;;;;4.95;1.35;;;;;;;;;;4872601;29;20029;-83
2023/10/27 00:45:49;;;;;;;4.28;1.60;;;;;;;;;;4874613;29;20068;-82
2023/10/27 00:48:15;;;;;;;5.78;1.70;;;;;;;;;;4875013;29;20544;-82
2023/10/27 00:50:42;;;;;;;4.93;1.52;;;;;;;;;;4875169;29;20112;-82
2023/10/27 00:53:07;;;;;;;5.43;1.65;;;;;;;;;;4874350;29;20029;-81
2023/10/27 00:55:34;;;;;;;4.50;1.60;;;;;;;;;;4875093;29;20036;-82
2023/10/27 00:58:00;;;;;;;5.82;1.67;;;;;;;;;;4874986;29;20092;-82
2023/10/27 01:00:27;;;;;;;3.97;1.60;;;;;;;;;;4875053;29;20041;-82
2023/10/27 01:02:52;;;;;;;7.97;2.00;;;;;;;;;;4874201;29;20056;-83
2023/10/27 01:05:17;;;;;;;5.65;1.90;;;;;;;;;;4874300;29;20068;-83
2023/10/27 01:07:43;;;;;;;7.78;1.90;;;;;;;;;;4874613;29;20470;-82
2023/10/27 01:10:08;;;;;;;4.97;1.85;;;;;;;;;;4873390;29;20043;-81
2023/10/27 01:12:34;;;;;;;6.90;2.03;;;;;;;;;;4874843;29;20494;-81
2023/10/27 01:14:59;;;;;;;5.82;1.90;;;;;;;;;;4874946;29;20037;-81
2023/10/27 01:17:24;;;;;;;5.32;2.10;;;;;;;;;;4873801;29;20486;-81
2023/10/27 01:19:50;;;;;;;6.05;1.95;;;;;;;;;;4874295;29;20055;-82
2023/10/27 01:22:15;;;;;;;5.78;1.98;;;;;;;;;;4874144;29;20089;-81
2023/10/27 01:24:41;;;;;;;6.40;2.20;;;;;;;;;;4874055;29;20066;-80
2023/10/27 01:27:07;;;;;;;7.43;2.22;;;;;;;;;;4875049;29;20094;-80
2023/10/27 01:29:33;;;;;;;7.50;2.28;;;;;;;;;;4875175;29;20517;-80
2023/10/27 01:31:59;;;;;;;6.63;2.25;;;;;;;;;;4857361;29;20048;-80
2023/10/27 01:34:24;;;;;;;6.50;2.20;;;;;;;;;;4873935;29;20037;-80
2023/10/27 01:36:49;;;;;;;4.22;2.13;;;;;;;;;;4874424;29;20063;-81
2023/10/27 01:39:15;;;;;;;5.72;2.22;;;;;;;;;;4873944;29;20033;-80
2023/10/27 01:41:41;;;;;;;7.15;2.30;;;;;;;;;;4874246;29;20033;-81
2023/10/27 01:44:06;;;;;;;11.55;3.50;;;;;;;;;;4874713;29;20085;-82
2023/10/27 01:46:32;;;;;;;6.65;2.42;;;;;;;;;;4872894;29;20029;-80
2023/10/27 01:48:57;;;;;;;5.72;2.30;;;;;;;;;;4873950;29;20069;-80
2023/10/27 01:51:22;;;;;;;7.22;2.42;;;;;;;;;;4874516;29;20060;-81
2023/10/27 01:53:51;;;;;;;6.70;2.30;;;;;;;;;;4874067;29;20129;-82
2023/10/27 01:56:16;;;;;;;6.30;2.60;;;;;;;;;;4874635;29;20029;-81
2023/10/27 01:58:44;;;;;;;6.07;2.10;;;;;;;;;;4873789;29;20029;-81
2023/10/27 02:01:10;;;;;;;7.15;2.00;;;;;;;;;;4870346;29;20030;-80
2023/10/27 02:03:35;;;;;;;8.20;2.17;;;;;;;;;;4873967;29;20104;-79
2023/10/27 02:06:00;;;;;;;6.25;2.10;;;;;;;;;;4874481;29;20029;-80
2023/10/27 02:08:26;;;;;;;6.00;1.85;;;;;;;;;;4874651;29;20395;-79
2023/10/27 02:10:52;;;;;;;6.97;1.90;;;;;;;;;;4874788;29;20028;-81
2023/10/27 02:13:17;;;;;;;9.48;2.75;;;;;;;;;;4876857;29;20389;-83
2023/10/27 02:15:43;;;;;;;5.20;2.03;;;;;;;;;;4881193;29;20037;-82
2023/10/27 02:18:08;;;;;;;5.25;2.25;;;;;;;;;;4869274;29;20041;-84
2023/10/27 02:20:34;;;;;;;7.70;2.00;;;;;;;;;;4873539;29;20169;-83
2023/10/27 02:23:00;;;;;;;8.65;1.80;;;;;;;;;;4857697;29;20080;-81
2023/10/27 02:25:25;;;;;;;6.63;2.20;;;;;;;;;;4853457;29;20052;-81
2023/10/27 02:27:51;;;;;;;6.70;2.10;;;;;;;;;;4857047;29;20033;-81
2023/10/27 02:30:16;;;;;;;7.25;2.03;;;;;;;;;;4872896;29;20124;-80
2023/10/27 02:32:41;;;;;;;7.03;2.03;;;;;;;;;;4873220;29;20033;-80
2023/10/27 02:35:07;;;;;;;7.97;1.73;;;;;;;;;;4872905;29;20072;-80
2023/10/27 02:37:33;;;;;;;5.80;2.30;;;;;;;;;;4857136;29;20044;-80
2023/10/27 02:39:59;;;;;;;9.43;2.10;;;;;;;;;;4872958;29;20029;-83
2023/10/27 02:42:24;;;;;;;8.43;2.10;;;;;;;;;;4857626;29;20032;-80
2023/10/27 02:44:49;;;;;;;6.20;2.00;;;;;;;;;;4859655;29;20030;-80
2023/10/27 02:47:15;;;;;;;8.35;2.10;;;;;;;;;;4875803;29;20029;-81
2023/10/27 02:49:40;;;;;;;6.32;2.10;;;;;;;;;;4874801;29;20093;-80
2023/10/27 02:52:05;;;;;;;6.55;2.13;;;;;;;;;;4864497;29;20064;-80
2023/10/27 02:54:31;;;;;;;6.93;2.13;;;;;;;;;;4876451;29;20621;-82
2023/10/27 02:56:56;;;;;;;6.72;2.00;;;;;;;;;;4860878;29;20435;-82
2023/10/27 02:59:21;;;;;;;12.27;2.20;;;;;;;;;;4875210;29;20042;-80
2023/10/27 03:01:47;;;;;;;8.63;2.15;;;;;;;;;;4860364;29;20124;-82
2023/10/27 03:04:13;;;;;;;7.30;1.98;;;;;;;;;;4859509;29;20044;-81
2023/10/27 03:06:38;;;;;;;12.05;2.30;;;;;;;;;;4859887;29;20375;-82
2023/10/27 03:09:04;;;;;;;8.55;2.20;;;;;;;;;;4876504;29;20049;-81
2023/10/27 03:11:29;;;;;;;5.13;2.00;;;;;;;;;;4860696;29;20032;-82
2023/10/27 03:13:55;;;;;;;8.40;2.30;;;;;;;;;;4860565;29;20029;-81
2023/10/27 03:16:21;;;;;;;6.88;2.20;;;;;;;;;;4875448;29;20506;-80
2023/10/27 03:18:48;;;;;;;14.55;2.40;;;;;;;;;;4859135;29;20049;-80
2023/10/27 03:21:13;;;;;;;8.02;2.20;;;;;;;;;;4864544;29;20036;-79
2023/10/27 03:23:38;;;;;;;8.32;2.47;;;;;;;;;;4875383;29;20493;-81
2023/10/27 03:26:04;;;;;;;11.52;2.53;;;;;;;;;;4875740;29;20124;-81
2023/10/27 03:28:30;;;;;;;13.43;2.50;;;;;;;;;;4875387;29;20045;-82
2023/10/27 03:30:55;;;;;;;10.45;2.53;;;;;;;;;;4875655;29;20584;-83
2023/10/27 03:33:20;;;;;;;12.80;2.55;;;;;;;;;;4857760;29;20032;-82
2023/10/27 03:35:46;;;;;;;10.35;2.70;;;;;;;;;;4874857;29;20040;-82
2023/10/27 03:38:12;;;;;;;7.90;2.40;;;;;;;;;;4859834;29;20443;-82
2023/10/27 03:40:39;;;;;;;9.63;2.45;;;;;;;;;;4859495;29;20136;-82
2023/10/27 03:43:04;;;;;;;9.05;3.13;;;;;;;;;;4860001;29;20064;-82
2023/10/27 03:45:29;;;;;;;13.73;3.08;;;;;;;;;;4859811;29;20049;-82
2023/10/27 03:47:55;;;;;;;13.88;2.58;;;;;;;;;;4859861;29;20096;-82
2023/10/27 03:50:20;;;;;;;16.25;2.75;;;;;;;;;;4870890;29;20056;-83
2023/10/27 03:52:46;;;;;;;16.05;2.67;;;;;;;;;;4874887;29;20029;-83
2023/10/27 03:55:12;;;;;;;16.00;2.55;;;;;;;;;;4874082;29;20397;-81
2023/10/27 03:57:39;;;;;;;17.70;3.33;;;;;;;;;;4875157;29;20028;-82
2023/10/27 04:00:05;;;;;;;10.07;2.45;;;;;;;;;;4860183;29;20033;-81
2023/10/27 04:02:31;;;;;;;15.23;2.65;;;;;;;;;;4866979;29;20051;-82
2023/10/27 04:04:56;;;;;;;10.25;2.70;;;;;;;;;;4859468;29;20398;-81
2023/10/27 04:07:22;;;;;;;17.58;3.03;;;;;;;;;;4859180;29;20037;-83
2023/10/27 04:09:47;;;;;;;17.38;3.00;;;;;;;;;;4858896;29;20029;-83
2023/10/27 04:12:13;;;;;;;14.60;2.90;;;;;;;;;;4874755;29;20101;-83
2023/10/27 04:14:39;;;;;;;14.43;3.05;;;;;;;;;;4874899;29;20033;-84
2023/10/27 04:17:04;;;;;;;12.82;2.60;;;;;;;;;;4874212;29;20029;-83
2023/10/27 04:19:30;;;;;;;13.13;2.55;;;;;;;;;;4874353;29;20041;-83
2023/10/27 04:21:55;;;;;;;10.38;2.40;;;;;;;;;;4859068;29;20069;-80
2023/10/27 04:24:20;;;;;;;14.13;2.65;;;;;;;;;;4874654;29;20469;-81
2023/10/27 04:26:46;;;;;;;15.20;3.22;;;;;;;;;;4858927;29;20166;-81
2023/10/27 04:29:11;;;;;;;9.75;2.50;;;;;;;;;;4874327;29;20128;-80
2023/10/27 04:31:36;;;;;;;14.07;2.33;;;;;;;;;;4858491;29;20071;-82
2023/10/27 04:34:02;;;;;;;10.02;2.83;;;;;;;;;;4873463;29;20100;-83
2023/10/27 04:36:27;;;;;;;18.20;3.58;;;;;;;;;;4858505;29;20116;-83
2023/10/27 04:38:53;;;;;;;13.68;2.70;;;;;;;;;;4873620;29;20033;-84
2023/10/27 04:41:18;;;;;;;14.77;3.10;;;;;;;;;;4862445;29;20120;-82
2023/10/27 04:43:43;;;;;;;21.95;2.75;;;;;;;;;;4858653;29;20041;-83
2023/10/27 04:46:09;;;;;;;12.73;3.25;;;;;;;;;;4864242;29;20084;-82
2023/10/27 04:48:34;;;;;;;13.68;2.85;;;;;;;;;;4875297;29;20110;-82
2023/10/27 04:51:04;;;;;;;16.88;3.67;;;;;;;;;;4874264;29;20032;-82
2023/10/27 04:53:32;;;;;;;13.35;3.13;;;;;;;;;;4859267;29;20025;-84
2023/10/27 04:55:58;;;;;;;14.32;2.90;;;;;;;;;;4858307;29;20755;-83
2023/10/27 04:58:24;;;;;;;18.67;2.80;;;;;;;;;;4874325;29;20037;-83
2023/10/27 05:00:50;;;;;;;18.20;2.90;;;;;;;;;;4873461;29;20089;-83
2023/10/27 05:03:16;;;;;;;18.83;3.25;;;;;;;;;;4873241;29;20045;-82
2023/10/27 05:05:42;;;;;;;18.98;2.70;;;;;;;;;;4847871;29;20033;-83
2023/10/27 05:08:07;;;;;;;13.38;2.47;;;;;;;;;;4858428;29;20075;-83
2023/10/27 05:10:33;;;;;;;14.18;2.95;;;;;;;;;;4875344;29;20459;-82
2023/10/27 05:12:58;;;;;;;20.63;3.17;;;;;;;;;;4858669;29;20028;-83
2023/10/27 05:15:25;;;;;;;14.80;2.70;;;;;;;;;;4859568;29;20041;-82
2023/10/27 05:17:50;;;;;;;20.15;3.10;;;;;;;;;;4858303;29;20036;-82
2023/10/27 05:20:16;;;;;;;12.13;2.90;;;;;;;;;;4858092;29;20049;-83
2023/10/27 05:22:41;;;;;;;16.25;3.25;;;;;;;;;;4873231;29;20039;-81
2023/10/27 05:25:07;;;;;;;16.38;3.35;;;;;;;;;;4855700;29;20037;-82
2023/10/27 05:27:36;;;;;;;14.43;2.88;;;;;;;;;;4856738;29;20029;-80
2023/10/27 05:30:02;;;;;;;14.77;2.97;;;;;;;;;;4873076;29;20194;-81
2023/10/27 05:32:29;;;;;;;14.70;2.72;;;;;;;;;;4865196;29;20025;-80
2023/10/27 05:34:55;;;;;;;16.63;3.25;;;;;;;;;;4857708;29;20056;-81
2023/10/27 05:37:21;;;;;;;14.55;2.60;;;;;;;;;;4857550;29;20079;-81
2023/10/27 05:39:47;;;;;;;16.02;2.63;;;;;;;;;;4856949;29;20047;-82
2023/10/27 05:42:13;;;;;;;13.98;2.30;;;;;;;;;;4851962;29;20045;-83
2023/10/27 05:44:41;;;;;;;15.45;2.30;;;;;;;;;;4862822;29;20094;-82
2023/10/27 05:47:06;;;;;;;13.25;2.47;;;;;;;;;;4859832;29;20033;-82
2023/10/27 05:49:32;;;;;;;16.00;2.35;;;;;;;;;;4869144;29;20390;-81
2023/10/27 05:51:58;;;;;;;9.63;2.25;;;;;;;;;;4860862;29;20169;-82
2023/10/27 05:54:23;;;;;;;11.68;2.63;;;;;;;;;;4862550;29;20029;-80
2023/10/27 05:56:48;;;;;;;15.10;2.95;;;;;;;;;;4873041;29;20490;-81
2023/10/27 05:59:14;;;;;;;10.25;2.40;;;;;;;;;;4875554;29;20479;-84
2023/10/27 06:01:39;;;;;;;14.00;2.63;;;;;;;;;;4875547;29;20037;-81
2023/10/27 06:04:05;;;;;;;13.88;2.72;;;;;;;;;;4862336;29;20028;-80
2023/10/27 06:06:30;;;;;;;15.40;3.25;;;;;;;;;;4872808;29;20029;-81
2023/10/27 06:08:56;;;;;;;15.35;2.50;;;;;;;;;;4861482;29;20149;-80
2023/10/27 06:11:22;;;;;;;11.43;2.85;;;;;;;;;;4867434;29;20041;-79
2023/10/27 06:13:49;;;;;;;15.55;2.60;;;;;;;;;;4853168;29;20037;-81
2023/10/27 06:16:14;;;;;;;12.70;3.17;;;;;;;;;;4874280;29;20123;-82
2023/10/27 06:18:39;;;;;;;17.05;2.83;;;;;;;;;;4873248;29;20132;-81
2023/10/27 06:21:05;;;;;;;14.40;2.75;;;;;;;;;;4878595;29;20571;-81
2023/10/27 06:23:31;;;;;;;16.60;2.92;;;;;;;;;;4877909;29;20041;-81
2023/10/27 06:25:56;;;;;;;17.05;3.13;;;;;;;;;;4873131;29;20048;-80
2023/10/27 06:28:22;;;;;;;14.73;3.20;;;;;;;;;;4873880;29;20079;-83
2023/10/27 06:30:47;;;;;;;11.50;2.70;;;;;;;;;;4876453;29;20036;-83
2023/10/27 06:33:12;;;;;;;18.27;2.95;;;;;;;;;;4875938;29;20037;-82
2023/10/27 06:35:38;;;;;;;13.38;2.80;;;;;;;;;;4876090;29;20486;-81
2023/10/27 06:38:04;;;;;;;16.90;2.97;;;;;;;;;;4877022;29;20084;-80
2023/10/27 06:40:29;;;;;;;12.50;2.60;;;;;;;;;;4856551;29;20611;-79
2023/10/27 06:42:54;;;;;;;14.73;2.80;;;;;;;;;;4860569;29;20029;-79
2023/10/27 06:45:20;;;;;;;17.02;2.97;;;;;;;;;;4867198;29;20236;-80
2023/10/27 06:47:45;;;;;;;13.70;2.83;;;;;;;;;;4879710;29;20036;-80
2023/10/27 06:50:11;;;;;;;13.50;2.67;;;;;;;;;;4862391;29;20037;-79
2023/10/27 06:52:36;;;;;;;14.70;2.50;;;;;;;;;;4860427;29;20514;-78
2023/10/27 06:55:01;;;;;;;9.45;2.42;;;;;;;;;;4860652;29;20119;-79
2023/10/27 06:57:27;;;;;;;14.10;2.67;;;;;;;;;;4866938;29;20063;-77
2023/10/27 06:59:55;;;;;;;20.00;2.63;;;;;;;;;;4861806;29;20135;-78
2023/10/27 07:02:24;;;;;;;15.05;2.33;;;;;;;;;;4866384;29;20037;-80
2023/10/27 07:04:50;;;;;;;11.65;2.50;;;;;;;;;;4859805;29;20533;-79
2023/10/27 07:07:15;;;;;;;8.65;2.15;;;;;;;;;;4862898;29;20128;-79
2023/10/27 07:09:41;;;;;;;10.70;2.28;;;;;;;;;;4875899;29;20049;-79
2023/10/27 07:12:08;;;;;;;11.85;2.55;;;;;;;;;;4868882;29;20112;-79
2023/10/27 07:14:35;;;;;;;18.27;2.92;;;;;;;;;;4871096;29;20037;-79
2023/10/27 07:17:00;;;;;;;8.82;2.42;;;;;;;;;;4876266;29;20033;-79
2023/10/27 07:19:26;;;;;;;11.98;2.30;;;;;;;;;;4880535;29;20490;-79
2023/10/27 07:21:51;;;;;;;14.18;2.10;;;;;;;;;;4860580;29;20052;-78
2023/10/27 07:24:17;;;;;;;10.55;2.20;;;;;;;;;;4876477;29;20116;-79
2023/10/27 07:26:42;;;;;;;14.45;2.20;;;;;;;;;;4875806;29;20025;-77
2023/10/27 07:29:07;;;;;;;11.57;2.15;;;;;;;;;;4875542;29;20115;-78
2023/10/27 07:31:33;;;;;;;12.52;2.50;;;;;;;;;;4867286;29;20028;-78
2023/10/27 07:33:58;;;;;;;14.20;2.20;;;;;;;;;;4863189;29;20081;-79
2023/10/27 07:36:24;;;;;;;8.85;2.33;;;;;;;;;;4860463;29;20037;-79
2023/10/27 07:38:51;;;;;;;11.75;1.80;;;;;;;;;;4871496;29;20052;-79
2023/10/27 07:41:16;;;;;;;15.80;2.08;;;;;;;;;;4859762;29;20077;-78
2023/10/27 07:43:42;;;;;;;8.07;2.00;;;;;;;;;;4860726;29;20088;-79
2023/10/27 07:46:07;;;;;;;10.02;2.00;;;;;;;;;;4875701;29;20032;-78
2023/10/27 07:48:33;;;;;;;10.43;2.20;;;;;;;;;;4875698;29;20040;-78
2023/10/27 07:50:59;;;;;;;11.80;2.60;;;;;;;;;;4860464;29;20044;-77
2023/10/27 07:53:26;;;;;;;11.55;2.50;;;;;;;;;;4875365;29;20057;-78
2023/10/27 07:55:51;;;;;;;14.00;2.63;;;;;;;;;;4877390;29;20036;-78
2023/10/27 07:58:16;;;;;;;15.30;2.38;;;;;;;;;;4866597;29;20575;-77
2023/10/27 08:00:42;;;;;;;12.70;2.15;;;;;;;;;;4860181;29;20114;-78
2023/10/27 08:03:07;;;;;;;10.10;1.98;;;;;;;;;;4883509;29;20037;-77
2023/10/27 08:05:33;;;;;;;9.93;1.92;;;;;;;;;;4882854;29;20032;-77
2023/10/27 08:07:58;;;;;;;11.48;2.35;;;;;;;;;;4863765;29;20288;-78
2023/10/27 08:10:24;;;;;;;10.25;1.80;;;;;;;;;;4876294;29;20040;-77
2023/10/27 08:12:50;;;;;;;10.15;1.90;;;;;;;;;;4876249;29;20112;-79
2023/10/27 08:15:16;;;;;;;9.57;1.70;;;;;;;;;;4875283;29;20124;-78
2023/10/27 08:17:41;;;;;;;9.43;1.90;;;;;;;;;;4858508;29;20025;-78
2023/10/27 08:20:07;;;;;;;11.65;2.20;;;;;;;;;;4859558;29;20052;-78
2023/10/27 08:22:33;;;;;;;12.65;2.10;;;;;;;;;;4864852;29;20033;-77
2023/10/27 08:24:58;;;;;;;15.50;1.90;;;;;;;;;;4862772;29;20045;-77
2023/10/27 08:27:24;;;;;;;11.45;1.80;;;;;;;;;;4885446;29;20041;-77
2023/10/27 08:29:54;;;;;;;12.98;2.17;;;;;;;;;;4878257;29;20071;-77
2023/10/27 08:32:19;;;;;;;11.70;2.13;;;;;;;;;;4878191;29;20112;-78
2023/10/27 08:34:44;;;;;;;13.27;2.40;;;;;;;;;;4877142;29;20161;-77
2023/10/27 08:37:16;;;;;;;10.27;1.90;;;;;;;;;;4863092;29;20063;-77
2023/10/27 08:39:42;;;;;;;11.40;2.13;;;;;;;;;;4879282;29;20329;-76
2023/10/27 08:42:08;;;;;;;11.20;1.70;;;;;;;;;;4884190;29;20029;-77
2023/10/27 08:44:34;;;;;;;14.20;2.00;;;;;;;;;;4868433;29;20040;-76
2023/10/27 08:47:01;;;;;;;14.70;2.00;;;;;;;;;;4885053;29;20033;-78
2023/10/27 08:49:26;;;;;;;11.38;2.20;;;;;;;;;;4884337;29;20021;-76
2023/10/27 08:51:52;;;;;;;12.80;2.55;;;;;;;;;;4885217;29;21209;-77
2023/10/27 08:54:17;;;;;;;15.45;1.88;;;;;;;;;;4885026;29;20083;-77
2023/10/27 08:56:43;;;;;;;8.23;2.00;;;;;;;;;;4886792;29;20204;-79
2023/10/27 08:59:11;;;;;;;13.10;2.40;;;;;;;;;;4882838;29;20036;-77
2023/10/27 09:01:36;;;;;;;11.25;1.80;;;;;;;;;;4886566;29;20028;-78
2023/10/27 09:04:10;;;;;;;14.55;2.50;;;;;;;;;;4883532;29;20252;-77
2023/10/27 09:06:37;;;;;;;10.32;2.03;;;;;;;;;;4886623;29;20261;-78
2023/10/27 09:09:09;;;;;;;10.60;2.08;;;;;;;;;;4884362;29;20041;-78
2023/10/27 09:11:47;;;;;;;18.30;2.63;;;;;;;;;;4884835;29;20025;-78
2023/10/27 09:14:19;;;;;;;11.10;1.85;;;;;;;;;;4880553;29;20698;-78
2023/10/27 09:16:45;;;;;;;14.10;2.33;;;;;;;;;;4878188;29;20136;-78
2023/10/27 09:19:26;;;;;;;9.10;1.90;;;;;;;;;;4879216;29;20481;-78
2023/10/27 09:21:53;;;;;;;12.95;2.13;;;;;;;;;;4885836;29;20178;-79
2023/10/27 09:24:23;;;;;;;12.52;1.95;;;;;;;;;;4882679;29;20410;-77
2023/10/27 09:26:49;;;;;;;11.27;1.77;;;;;;;;;;4884899;29;20040;-77
2023/10/27 09:29:15;;;;;;;11.77;1.70;;;;;;;;;;4889797;29;20032;-77
2023/10/27 09:31:42;;;;;;;11.45;2.10;;;;;;;;;;4879356;29;20041;-76
2023/10/27 09:34:23;;;;;;;13.77;2.10;;;;;;;;;;4886056;29;20037;-77
2023/10/27 09:36:59;;;;;;;12.00;1.90;;;;;;;;;;4884903;29;20052;-77
2023/10/27 09:39:25;;;;;;;13.23;2.00;;;;;;;;;;4884676;29;20090;-76
2023/10/27 09:42:02;;;;;;;10.52;2.13;;;;;;;;;;4885927;29;20037;-76
2023/10/27 09:44:42;;;;;;;15.63;2.20;;;;;;;;;;4882655;29;20037;-77
2023/10/27 09:47:30;;;;;;;16.40;1.92;;;;;;;;;;4883409;29;20048;-78
2023/10/27 09:50:06;;;;;;;12.57;2.00;;;;;;;;;;4884447;29;20108;-76
2023/10/27 09:52:32;;;;;;;13.95;2.30;;;;;;;;;;4884430;29;20064;-76
2023/10/27 09:54:58;;;;;;;11.38;2.20;;;;;;;;;;4888507;29;20084;-77
2023/10/27 09:57:26;;;;;;;13.63;2.10;;;;;;;;;;4888607;29;20036;-79
2023/10/27 09:59:54;;;;;;;16.58;2.60;;;;;;;;;;4886780;29;20068;-76
2023/10/27 10:02:20;;;;;;;12.85;2.30;;;;;;;;;;4889418;29;20037;-76
2023/10/27 10:04:51;;;;;;;16.75;2.40;;;;;;;;;;4889506;29;20036;-76
2023/10/27 10:07:31;;;;;;;12.15;2.17;;;;;;;;;;4888827;29;20071;-77
2023/10/27 10:09:57;;;;;;;13.98;2.60;;;;;;;;;;4887626;29;20039;-77
2023/10/27 10:12:23;;;;;;;13.95;2.67;;;;;;;;;;4883140;29;20032;-75
2023/10/27 10:14:49;;;;;;;11.55;2.00;;;;;;;;;;4892368;29;20356;-77
2023/10/27 10:17:37;;;;;;;14.20;2.40;;;;;;;;;;4882294;29;20108;-76
2023/10/27 10:20:03;;;;;;;17.90;2.47;;;;;;;;;;4886197;29;20097;-76
2023/10/27 10:22:41;;;;;;;10.55;2.25;;;;;;;;;;4893628;29;20041;-77
2023/10/27 10:25:18;;;;;;;10.43;1.92;;;;;;;;;;4888383;29;20037;-77
2023/10/27 10:28:16;;;;;;;11.57;2.15;;;;;;;;;;4890221;29;20148;-76
2023/10/27 10:30:46;;;;;;;10.23;1.90;;;;;;;;;;4872385;29;20253;-75
2023/10/27 10:33:22;;;;;;;9.35;1.95;;;;;;;;;;4892431;29;20092;-78
2023/10/27 10:35:48;;;;;;;;;;;;;;;;;;4888002;29;20077;-76
2023/10/27 10:38:22;;;;;;;11.90;2.10;;;;;;;;;;4882156;29;19932;-72
2023/10/27 10:40:55;;;;;;;12.52;2.15;;;;;;;;;;4887345;29;20040;-77
2023/10/27 10:43:27;;;;;;;12.45;2.25;;;;;;;;;;4889594;29;20085;-76
2023/10/27 10:45:57;;;;;;;13.45;2.40;;;;;;;;;;4887414;29;20084;-77
2023/10/27 10:48:28;;;;;;;10.20;2.25;;;;;;;;;;4880141;29;20525;-75
2023/10/27 10:50:56;;;;;;;12.02;1.92;;;;;;;;;;4886870;29;20045;-75
2023/10/27 10:53:24;;;;;;;14.52;1.95;;;;;;;;;;4886760;29;20077;-75
2023/10/27 10:55:51;;;;;;;14.30;1.92;;;;;;;;;;4872115;29;20033;-74
2023/10/27 10:58:24;;;;;;;12.57;2.35;;;;;;;;;;4888863;29;20101;-75
2023/10/27 11:00:51;;;;;;;14.07;2.30;;;;;;;;;;4887714;29;20025;-74
2023/10/27 11:03:17;;;;;;;18.08;2.75;;;;;;;;;;4871281;29;20493;-76
2023/10/27 11:05:43;;;;;;;13.55;2.42;;;;;;;;;;4888293;29;20021;-76
2023/10/27 11:08:08;;;;;;;12.18;2.10;;;;;;;;;;4887376;29;20044;-76
2023/10/27 11:10:35;;;;;;;16.20;2.50;;;;;;;;;;4886409;29;20347;-76
2023/10/27 11:13:04;;;;;;;12.02;2.10;;;;;;;;;;4890808;29;20076;-75
2023/10/27 11:15:50;;;;;;;11.98;2.17;;;;;;;;;;4890607;29;20040;-76
2023/10/27 11:18:17;;;;;;;13.93;2.03;;;;;;;;;;4877764;29;20024;-79
2023/10/27 11:20:47;;;;;;;11.45;2.03;;;;;;;;;;4871530;29;20036;-77
2023/10/27 11:23:17;;;;;;;12.05;2.20;;;;;;;;;;4887967;29;20224;-76
2023/10/27 11:25:43;;;;;;;12.32;2.25;;;;;;;;;;4871121;29;20108;-76
2023/10/27 11:28:29;;;;;;;9.90;2.10;;;;;;;;;;4870760;29;20040;-78
2023/10/27 11:31:01;;;;;;;;;;;;;;;;;;4869927;29;20045;-75
2023/10/27 11:33:28;;;;;;;11.73;2.25;;;;;;;;;;4884719;29;19990;-78
2023/10/27 11:35:55;;;;;;;12.15;2.70;;;;;;;;;;4870526;29;20076;-78
2023/10/27 11:38:23;;;;;;;14.45;2.53;;;;;;;;;;4889568;29;20045;-78
2023/10/27 11:40:50;;;;;;;13.57;2.30;;;;;;;;;;4870420;29;20048;-77
2023/10/27 11:43:15;;;;;;;17.40;2.45;;;;;;;;;;4886359;29;20052;-77
2023/10/27 11:45:40;;;;;;;12.43;1.88;;;;;;;;;;4886524;29;20025;-77
2023/10/27 11:48:06;;;;;;;11.13;2.20;;;;;;;;;;4886707;29;20388;-77
2023/10/27 11:50:31;;;;;;;10.52;2.15;;;;;;;;;;4868822;29;20055;-77
2023/10/27 11:52:59;;;;;;;12.70;3.55;;;;;;;;;;4885455;29;20153;-79
2023/10/27 11:55:24;;;;;;;15.73;2.55;;;;;;;;;;4887846;29;20329;-77
2023/10/27 11:57:50;;;;;;;10.18;2.10;;;;;;;;;;4870015;29;20062;-76
2023/10/27 12:00:15;;;;;;;11.68;2.50;;;;;;;;;;4870427;29;20029;-79
2023/10/27 12:02:40;;;;;;;12.85;2.70;;;;;;;;;;4885588;29;20301;-77
2023/10/27 12:05:06;;;;;;;13.27;2.50;;;;;;;;;;4887273;29;20104;-77
2023/10/27 12:07:31;;;;;;;11.55;2.30;;;;;;;;;;4886946;29;20021;-77
2023/10/27 12:09:57;;;;;;;10.15;2.25;;;;;;;;;;4887589;29;20356;-78
2023/10/27 12:12:22;;;;;;;17.45;2.90;;;;;;;;;;4870307;29;20115;-77
2023/10/27 12:14:47;;;;;;;11.82;2.03;;;;;;;;;;4890434;29;20294;-77
2023/10/27 12:17:13;;;;;;;12.27;3.45;;;;;;;;;;4869920;29;20089;-76
2023/10/27 12:19:38;;;;;;;13.30;3.78;;;;;;;;;;4886163;29;20160;-76
2023/10/27 12:22:04;;;;;;;9.07;2.10;;;;;;;;;;4886071;29;20044;-75
2023/10/27 12:24:32;;;;;;;14.43;2.50;;;;;;;;;;4885305;29;20305;-76
2023/10/27 12:26:57;;;;;;;11.93;2.35;;;;;;;;;;4892226;29;20041;-77
2023/10/27 12:29:26;;;;;;;11.60;2.22;;;;;;;;;;4891824;29;20033;-76
2023/10/27 12:31:51;;;;;;;12.38;2.28;;;;;;;;;;4869917;29;20100;-75
2023/10/27 12:34:16;;;;;;;15.38;2.17;;;;;;;;;;4886196;29;20033;-75
2023/10/27 12:36:42;;;;;;;13.82;2.42;;;;;;;;;;4870607;29;20045;-76
2023/10/27 12:39:07;;;;;;;10.65;2.08;;;;;;;;;;4889842;29;20380;-76
2023/10/27 12:41:33;;;;;;;11.30;2.33;;;;;;;;;;4886287;29;20434;-76
2023/10/27 12:43:58;;;;;;;14.82;2.35;;;;;;;;;;4886581;29;20410;-76
2023/10/27 12:46:24;;;;;;;14.68;2.40;;;;;;;;;;4885915;29;20154;-75
2023/10/27 12:48:51;;;;;;;8.80;2.45;;;;;;;;;;4886260;29;20092;-76
2023/10/27 12:51:16;;;;;;;13.95;2.08;;;;;;;;;;4885911;29;20048;-75
2023/10/27 12:53:43;;;;;;;11.13;2.15;;;;;;;;;;4886806;29;20319;-76
2023/10/27 12:56:08;;;;;;;13.38;2.05;;;;;;;;;;4885051;29;20052;-76
2023/10/27 12:58:34;;;;;;;9.25;2.17;;;;;;;;;;4884572;29;20400;-76
2023/10/27 13:01:00;;;;;;;14.20;2.20;;;;;;;;;;4878498;29;20029;-78
2023/10/27 13:03:26;;;;;;;11.52;2.38;;;;;;;;;;4884257;29;20220;-77
2023/10/27 13:05:52;;;;;;;11.32;2.13;;;;;;;;;;4887937;29;20033;-76
2023/10/27 13:08:17;;;;;;;15.35;2.20;;;;;;;;;;4888815;29;20036;-77
2023/10/27 13:10:44;;;;;;;11.20;2.53;;;;;;;;;;4887056;29;20057;-75
2023/10/27 13:13:10;;;;;;;10.70;2.30;;;;;;;;;;4882390;29;20049;-75
2023/10/27 13:15:38;;;;;;;10.18;1.80;;;;;;;;;;4879406;29;20036;-76
2023/10/27 13:18:04;;;;;;;10.57;2.17;;;;;;;;;;4884398;29;20061;-78
2023/10/27 13:20:33;;;;;;;13.23;2.40;;;;;;;;;;4883519;29;20076;-76
2023/10/27 13:22:58;;;;;;;11.35;2.13;;;;;;;;;;4886394;29;20044;-77
2023/10/27 13:25:24;;;;;;;10.88;2.90;;;;;;;;;;4885559;29;20221;-81
2023/10/27 13:27:51;;;;;;;10.30;2.20;;;;;;;;;;4884330;29;20036;-80
2023/10/27 13:30:16;;;;;;;14.55;2.67;;;;;;;;;;4885050;29;20077;-80
2023/10/27 13:32:45;;;;;;;15.95;4.18;;;;;;;;;;4883881;29;20044;-83
2023/10/27 13:35:11;;;;;;;16.67;3.75;;;;;;;;;;4880656;29;20040;-82
2023/10/27 13:37:39;;;;;;;15.48;3.78;;;;;;;;;;4886655;29;20031;-80
2023/10/27 13:40:08;;;;;;;17.45;3.10;;;;;;;;;;4887531;29;20063;-83
2023/10/27 13:42:33;;;;;;;13.52;2.60;;;;;;;;;;4869935;29;20065;-78
2023/10/27 13:45:00;;;;;;;15.95;3.00;;;;;;;;;;4868756;29;20025;-79
2023/10/27 13:47:28;;;;;;;16.92;2.80;;;;;;;;;;4883786;29;20322;-77
2023/10/27 13:49:53;;;;;;;16.15;2.80;;;;;;;;;;4879024;29;20191;-76
2023/10/27 13:52:21;;;;;;;13.63;2.78;;;;;;;;;;4884071;29;20036;-78
2023/10/27 13:54:46;;;;;;;17.95;3.28;;;;;;;;;;4869979;29;20099;-76
2023/10/27 13:57:11;;;;;;;17.90;2.90;;;;;;;;;;4884890;29;20040;-78
2023/10/27 13:59:40;;;;;;;20.58;2.92;;;;;;;;;;4884260;29;20077;-77
2023/10/27 14:02:06;;;;;;;22.77;3.45;;;;;;;;;;4870199;29;20104;-78
2023/10/27 14:04:31;;;;;;;14.65;3.05;;;;;;;;;;4885591;29;20059;-76
2023/10/27 14:06:57;;;;;;;16.00;3.72;;;;;;;;;;4880164;29;20037;-78
2023/10/27 14:09:25;;;;;;;17.35;2.92;;;;;;;;;;4874327;29;20037;-77
2023/10/27 14:11:50;;;;;;;17.15;3.65;;;;;;;;;;4885663;29;20104;-79
2023/10/27 14:14:22;;;;;;;20.20;4.10;;;;;;;;;;4893171;29;20040;-77
2023/10/27 14:16:48;;;;;;;20.23;3.45;;;;;;;;;;4871095;29;20041;-76
2023/10/27 14:19:17;;;;;;;17.92;3.70;;;;;;;;;;4888423;29;20064;-76
2023/10/27 14:21:45;;;;;;;18.00;3.15;;;;;;;;;;4884786;29;20028;-77
2023/10/27 14:24:19;;;;;;;17.20;3.00;;;;;;;;;;4868530;29;20041;-77
2023/10/27 14:26:46;;;;;;;17.17;3.63;;;;;;;;;;4869167;29;20051;-77
2023/10/27 14:29:12;;;;;;;17.33;2.95;;;;;;;;;;4885707;29;20270;-77
2023/10/27 14:31:38;;;;;;;17.45;3.40;;;;;;;;;;4885993;29;20115;-78